1 października 2022

Czas Kod Pogoda Temp. Widoczność Sufit Wiatr METAR/SPECI
07:00
M
22 °C 10 km+ 1.700 ft 170° 170° 4 kt METAR FMMS 010300Z 17004KT 9999 BKN017 22/18 Q1019

30 września 2022

Czas Kod Pogoda Temp. Widoczność Sufit Wiatr METAR/SPECI
19:00
V
23 °C 10 km+ - 160° 160° 6 kt METAR FMMS 301500Z 16006KT 9999 FEW017 23/17 Q1019
13:00
V
27 °C 10 km+ - 160° 160° 8 kt METAR FMMS 300900Z 16008KT 9999 SCT017 27/17 Q1019
10:00
V
26 °C 10 km+ - 160° 160° 8 kt METAR FMMS 300600Z 16008KT 9999 SCT017 26/17 Q1020
07:00
M
23 °C 10 km+ 1.700 ft 160° 160° 8 kt METAR FMMS 300300Z 16008KT 9999 VCSH BKN017 23/18 Q1019

29 września 2022

Czas Kod Pogoda Temp. Widoczność Sufit Wiatr METAR/SPECI
19:00
V
23 °C 10 km+ 4.000 ft 160° 160° 8 kt METAR FMMS 291500Z 16008KT 9999 SCT017 BKN040 23/18 Q1019
13:00
V
26 °C 10 km+ 4.000 ft 170° 170° 10 kt METAR FMMS 290900Z 17010KT 9999 FEW017 BKN040 26/17 Q1020
Starsze dane

My i osoby trzecie śledzimy twoje zachowanie w internecie na naszej stronie za pomocą plików cookie. Jeśli kontynuujesz, zakładamy, że zgadzasz się z naszą polityką plików cookie. Dowiedz się więcej